Atlanta, Georgia
Traffic Map
Current Weather Conditions
Atlanta, Georgia
Few Clouds
Few Clouds
60°
Feels Like: 60°
Wind Chill: 60° Ceiling: Unl
Heat Index: 60° Visibility: 10mi
Dew Point: 40° Wind: 12mph
Humidity: 47% Direction: 100° (E)
Pressure: 30.06in Gusts: 18mph
Raw Report DataKATL 241352Z 10010G16KT 10SM FEW250 16/04 A3006 RMK AO2 SLP175 T01560044
Traffic Incident Summary
Active as of:
Severity:
Category:
InformationThere was an issue retrieving the traffic information for this location. Please try a different location or try again shortly.
Advertisements
At Last! Intellicast now available for iPhone and Android